Time;durP1;ratioP1;P1;durP2;ratioP2;P2;SDS_P1;SDS_P2;PMS_P1;PMS_P2;Temp;Humidity;BMP_temperature;BMP_pressure;BME280_temperature;BME280_humidity;BME280_pressure;Samples;Min_cycle;Max_cycle;Signal;HPM_P1;HPM_P2
2020/12/10 00:00:23;;;;;;;23.52;17.98;;;5.50;99.90;;;;;;5072863;28;20311;-79
2020/12/10 00:02:49;;;;;;;27.60;16.25;;;5.50;99.90;;;;;;5072878;28;20233;-79
2020/12/10 00:05:16;;;;;;;23.50;17.50;;;5.60;99.90;;;;;;5072774;28;20315;-79
2020/12/10 00:07:43;;;;;;;23.67;16.95;;;5.60;99.90;;;;;;5072730;28;20194;-79
2020/12/10 00:10:10;;;;;;;25.42;16.38;;;5.60;99.90;;;;;;5072778;28;20194;-79
2020/12/10 00:12:40;;;;;;;22.77;17.52;;;5.60;99.90;;;;;;5072682;28;20199;-79
2020/12/10 00:15:07;;;;;;;23.70;17.50;;;5.70;99.90;;;;;;5073186;28;20228;-80
2020/12/10 00:17:33;;;;;;;24.25;17.02;;;5.70;99.90;;;;;;5072658;28;20281;-79
2020/12/10 00:19:59;;;;;;;21.70;16.77;;;5.70;99.90;;;;;;5075012;28;20197;-79
2020/12/10 00:22:26;;;;;;;24.17;17.23;;;5.80;99.90;;;;;;5076265;28;20226;-79
2020/12/10 00:24:53;;;;;;;25.30;18.55;;;5.80;99.90;;;;;;5076366;28;20190;-78
2020/12/10 00:27:24;;;;;;;21.55;15.63;;;5.70;99.90;;;;;;5076342;28;20200;-79
2020/12/10 00:29:51;;;;;;;25.77;18.17;;;5.70;99.90;;;;;;5076418;28;20593;-79
2020/12/10 00:35:40;;;;;;;21.85;16.25;;;5.80;99.90;;;;;;5076280;28;20602;-79
2020/12/10 00:38:06;;;;;;;25.20;17.08;;;5.90;99.90;;;;;;5076136;28;20198;-79
2020/12/10 00:40:32;;;;;;;22.10;17.05;;;5.80;99.90;;;;;;5075991;28;20649;-79
2020/12/10 00:42:58;;;;;;;26.58;18.90;;;5.90;99.90;;;;;;5075886;28;20576;-79
2020/12/10 00:45:26;;;;;;;27.60;17.52;;;5.90;99.90;;;;;;5075969;28;20198;-79
2020/12/10 00:47:52;;;;;;;27.30;16.00;;;5.90;99.90;;;;;;5076168;28;20201;-79
2020/12/10 00:50:18;;;;;;;24.63;17.30;;;5.80;99.90;;;;;;5075980;28;20194;-79
2020/12/10 00:53:22;;;;;;;24.90;15.85;;;5.90;99.90;;;;;;5075744;28;20199;-79
2020/12/10 00:55:48;;;;;;;24.15;17.20;;;5.90;99.90;;;;;;5075716;28;20301;-79
2020/12/10 00:58:14;;;;;;;20.98;16.02;;;5.80;99.90;;;;;;5075788;28;20237;-79
2020/12/10 01:00:41;;;;;;;24.58;17.15;;;5.80;99.90;;;;;;5075684;28;20191;-79
2020/12/10 01:03:07;;;;;;;23.35;16.08;;;5.90;99.90;;;;;;5075523;28;20226;-80
2020/12/10 01:05:34;;;;;;;24.33;16.90;;;6.10;99.90;;;;;;5075646;28;20550;-79
2020/12/10 01:08:00;;;;;;;23.55;16.10;;;6.10;99.90;;;;;;5075860;28;20194;-79
2020/12/10 01:10:26;;;;;;;22.75;17.70;;;6.20;99.90;;;;;;5075769;28;20567;-79
2020/12/10 01:12:52;;;;;;;25.17;17.48;;;6.20;99.90;;;;;;5075472;28;20190;-79
2020/12/10 01:15:19;;;;;;;22.75;15.95;;;6.20;99.90;;;;;;5075561;28;20198;-79
2020/12/10 01:17:46;;;;;;;20.85;14.95;;;6.20;99.90;;;;;;5075434;28;20554;-79
2020/12/10 01:20:12;;;;;;;21.95;16.48;;;6.20;99.90;;;;;;5075384;28;20194;-79
2020/12/10 01:22:38;;;;;;;25.05;17.50;;;6.20;99.90;;;;;;5075047;28;20218;-79
2020/12/10 01:25:05;;;;;;;24.58;16.48;;;6.10;99.90;;;;;;5075564;28;20206;-79
2020/12/10 01:27:32;;;;;;;21.00;16.08;;;6.10;99.90;;;;;;5075398;28;20198;-79
2020/12/10 01:29:58;;;;;;;21.15;15.73;;;6.10;99.90;;;;;;5075195;28;20194;-80
2020/12/10 01:32:25;;;;;;;25.60;18.23;;;6.10;99.90;;;;;;5074313;28;20194;-79
2020/12/10 01:34:53;;;;;;;26.17;16.42;;;6.20;99.90;;;;;;5074813;28;20215;-79
2020/12/10 01:37:19;;;;;;;27.02;17.17;;;6.20;99.90;;;;;;5075011;28;20539;-80
2020/12/10 01:39:46;;;;;;;20.83;15.40;;;6.10;99.90;;;;;;5074995;28;20202;-79
2020/12/10 01:42:13;;;;;;;21.42;15.52;;;6.00;99.90;;;;;;5074649;28;20238;-79
2020/12/10 01:44:39;;;;;;;23.75;15.45;;;6.10;99.90;;;;;;5074806;28;20545;-79
2020/12/10 01:47:06;;;;;;;22.20;15.18;;;6.10;99.90;;;;;;5074864;28;20532;-79
2020/12/10 01:49:34;;;;;;;21.20;15.57;;;6.10;99.90;;;;;;5074952;28;20195;-80
2020/12/10 01:52:02;;;;;;;22.45;15.57;;;6.10;99.90;;;;;;5074768;28;20209;-79
2020/12/10 01:54:28;;;;;;;17.85;15.20;;;6.10;99.90;;;;;;5074535;28;20704;-79
2020/12/10 01:56:54;;;;;;;21.55;15.35;;;6.10;99.90;;;;;;5074722;28;20205;-79
2020/12/10 01:59:21;;;;;;;19.38;14.48;;;6.10;99.90;;;;;;5074396;28;20648;-79
2020/12/10 02:01:48;;;;;;;21.73;15.57;;;6.00;99.90;;;;;;5074526;28;20206;-79
2020/12/10 02:04:32;;;;;;;22.75;16.35;;;6.10;99.90;;;;;;5074301;28;20571;-79
2020/12/10 02:06:59;;;;;;;20.92;14.50;;;6.10;99.90;;;;;;5074409;28;20695;-80
2020/12/10 02:09:26;;;;;;;21.67;15.82;;;6.00;99.90;;;;;;5074425;28;20653;-79
2020/12/10 02:11:53;;;;;;;20.52;15.70;;;6.10;99.90;;;;;;5074569;28;20194;-79
2020/12/10 02:14:19;;;;;;;23.63;17.10;;;6.10;99.90;;;;;;5074202;28;20205;-79
2020/12/10 02:16:46;;;;;;;23.55;15.20;;;6.10;99.90;;;;;;5074336;28;20194;-79
2020/12/10 02:19:12;;;;;;;21.83;15.10;;;6.10;99.90;;;;;;5074180;28;20217;-80
2020/12/10 02:21:38;;;;;;;22.52;16.48;;;6.10;99.90;;;;;;5074081;28;20550;-79
2020/12/10 02:24:06;;;;;;;24.80;16.52;;;6.10;99.90;;;;;;5074176;28;20194;-80
2020/12/10 02:26:32;;;;;;;24.67;16.27;;;6.10;99.90;;;;;;5074147;28;20194;-79
2020/12/10 02:29:00;;;;;;;21.38;15.23;;;6.10;99.90;;;;;;5074112;28;20197;-79
2020/12/10 02:31:28;;;;;;;23.33;16.23;;;6.20;99.90;;;;;;5074003;28;20194;-79
2020/12/10 02:33:59;;;;;;;22.35;17.35;;;6.00;99.90;;;;;;5073475;28;20252;-80
2020/12/10 02:36:26;;;;;;;19.23;13.73;;;6.00;99.90;;;;;;5074171;28;20613;-79
2020/12/10 02:38:52;;;;;;;20.55;15.90;;;6.00;99.90;;;;;;5073881;28;20655;-80
2020/12/10 02:41:19;;;;;;;25.40;15.63;;;6.00;99.90;;;;;;5073712;28;20202;-80
2020/12/10 02:43:46;;;;;;;19.67;15.05;;;6.00;99.90;;;;;;5073613;28;20357;-79
2020/12/10 02:46:12;;;;;;;22.00;16.23;;;6.00;99.90;;;;;;5073821;28;20194;-80
2020/12/10 02:48:39;;;;;;;20.83;16.45;;;6.00;99.90;;;;;;5073636;28;20206;-79
2020/12/10 02:51:06;;;;;;;24.38;16.63;;;6.00;99.90;;;;;;5073743;28;20195;-79
2020/12/10 02:53:33;;;;;;;24.98;16.48;;;6.00;99.90;;;;;;5073419;28;20198;-78
2020/12/10 02:56:00;;;;;;;21.67;15.45;;;6.00;99.90;;;;;;5073467;28;20538;-79
2020/12/10 02:58:27;;;;;;;19.48;15.13;;;6.00;99.90;;;;;;5073523;28;20218;-79
2020/12/10 03:00:53;;;;;;;24.83;15.90;;;6.10;99.90;;;;;;5073698;28;20544;-79
2020/12/10 03:03:19;;;;;;;21.00;13.95;;;6.10;99.90;;;;;;5073314;28;20735;-79
2020/12/10 03:05:46;;;;;;;22.00;14.50;;;6.10;99.90;;;;;;5073341;28;20233;-79
2020/12/10 03:08:12;;;;;;;22.90;15.88;;;6.20;99.90;;;;;;5073619;28;20202;-79
2020/12/10 03:10:38;;;;;;;21.98;14.63;;;6.20;99.90;;;;;;5073648;28;20543;-79
2020/12/10 03:13:05;;;;;;;21.50;16.05;;;6.30;99.90;;;;;;5073194;28;20198;-79
2020/12/10 03:15:32;;;;;;;21.95;15.35;;;6.30;99.90;;;;;;5073595;28;20202;-79
2020/12/10 03:17:59;;;;;;;25.73;15.68;;;6.20;99.90;;;;;;5073311;28;20240;-79
2020/12/10 03:20:26;;;;;;;22.52;15.15;;;6.20;99.90;;;;;;5073102;28;20194;-80
2020/12/10 03:22:52;;;;;;;21.83;15.80;;;6.30;99.90;;;;;;5073195;28;20898;-80
2020/12/10 03:25:18;;;;;;;18.85;13.27;;;6.30;99.90;;;;;;5073621;28;20190;-79
2020/12/10 03:27:46;;;;;;;26.17;17.40;;;6.20;99.90;;;;;;5073395;28;20202;-80
2020/12/10 03:30:12;;;;;;;21.52;15.30;;;6.20;99.90;;;;;;5073429;28;20194;-78
2020/12/10 03:32:39;;;;;;;22.83;15.63;;;6.20;99.90;;;;;;5073047;28;20209;-79
2020/12/10 03:35:06;;;;;;;21.33;14.95;;;6.20;99.90;;;;;;5073017;28;20727;-79
2020/12/10 03:37:32;;;;;;;22.08;15.50;;;6.20;99.90;;;;;;5072963;28;20194;-79
2020/12/10 03:39:58;;;;;;;22.00;16.55;;;6.10;99.90;;;;;;5073161;28;20558;-79
2020/12/10 03:42:24;;;;;;;22.88;15.45;;;6.20;99.90;;;;;;5073033;28;20214;-80
2020/12/10 03:44:50;;;;;;;22.60;15.73;;;6.10;99.90;;;;;;5073013;28;20198;-79
2020/12/10 03:47:17;;;;;;;22.77;15.00;;;6.20;99.90;;;;;;5073196;28;20202;-79
2020/12/10 03:49:44;;;;;;;16.65;14.00;;;6.10;99.90;;;;;;5073121;28;20205;-80
2020/12/10 03:52:10;;;;;;;24.65;16.17;;;6.20;99.90;;;;;;5072956;28;20202;-79
2020/12/10 03:54:36;;;;;;;21.27;14.55;;;6.20;99.90;;;;;;5074618;28;20233;-79
2020/12/10 03:57:03;;;;;;;18.95;13.63;;;6.20;99.90;;;;;;5076984;28;20205;-79
2020/12/10 03:59:29;;;;;;;20.65;14.77;;;6.20;99.90;;;;;;5077032;28;20201;-79
2020/12/10 04:01:55;;;;;;;20.48;14.10;;;6.30;99.90;;;;;;5076919;28;20209;-79
2020/12/10 04:04:22;;;;;;;19.77;15.25;;;6.30;99.90;;;;;;5076778;28;20245;-78
2020/12/10 04:06:49;;;;;;;25.45;16.00;;;6.30;99.90;;;;;;5076718;28;20217;-78
2020/12/10 04:09:15;;;;;;;21.52;14.90;;;6.40;99.90;;;;;;5076831;28;20194;-78
2020/12/10 04:11:42;;;;;;;22.30;15.00;;;6.30;99.90;;;;;;5076633;28;20198;-79
2020/12/10 04:14:09;;;;;;;19.17;14.60;;;6.30;99.90;;;;;;5077049;28;20202;-79
2020/12/10 04:16:36;;;;;;;18.05;13.93;;;6.20;99.90;;;;;;5076440;28;20190;-79
2020/12/10 04:19:03;;;;;;;20.42;15.18;;;6.20;99.90;;;;;;5076545;28;20206;-79
2020/12/10 04:21:29;;;;;;;22.15;16.50;;;6.20;99.90;;;;;;5076557;28;20198;-78
2020/12/10 04:23:56;;;;;;;23.92;14.95;;;6.30;99.90;;;;;;5076271;28;20225;-79
2020/12/10 04:26:22;;;;;;;23.55;15.60;;;6.30;99.90;;;;;;5076237;28;20202;-79
2020/12/10 04:28:49;;;;;;;32.92;14.15;;;6.30;99.90;;;;;;5076281;28;20198;-78
2020/12/10 04:31:16;;;;;;;20.60;14.98;;;6.30;99.90;;;;;;5076156;28;20650;-79
2020/12/10 04:33:43;;;;;;;20.98;14.57;;;6.30;99.90;;;;;;5075925;28;20650;-79
2020/12/10 04:36:09;;;;;;;23.55;14.80;;;6.30;99.90;;;;;;5076178;28;20554;-79
2020/12/10 04:38:35;;;;;;;18.73;14.48;;;6.30;99.90;;;;;;5076051;28;20342;-79
2020/12/10 04:41:05;;;;;;;20.63;15.35;;;6.30;99.90;;;;;;5076091;28;20548;-79
2020/12/10 04:43:32;;;;;;;22.73;15.70;;;6.30;99.90;;;;;;5075937;28;20254;-79
2020/12/10 04:45:59;;;;;;;20.17;14.98;;;6.30;99.90;;;;;;5076018;28;20195;-79
2020/12/10 04:48:27;;;;;;;22.75;15.45;;;6.30;99.90;;;;;;5075941;28;20543;-79
2020/12/10 04:50:55;;;;;;;20.85;14.52;;;6.30;99.90;;;;;;5075766;28;20194;-79
2020/12/10 04:53:23;;;;;;;23.83;16.40;;;6.30;99.90;;;;;;5075914;28;20194;-79
2020/12/10 04:55:49;;;;;;;22.17;16.35;;;6.30;99.90;;;;;;5075860;28;20201;-79
2020/12/10 04:58:16;;;;;;;23.23;15.32;;;6.30;99.90;;;;;;5075891;28;20194;-79
2020/12/10 05:00:43;;;;;;;18.20;14.93;;;6.30;99.90;;;;;;5075718;28;20205;-79
2020/12/10 05:03:10;;;;;;;21.85;16.38;;;6.30;99.90;;;;;;5075506;28;20234;-78
2020/12/10 05:05:37;;;;;;;23.25;14.98;;;6.20;99.90;;;;;;5074186;28;20214;-79
2020/12/10 05:08:04;;;;;;;20.20;15.05;;;6.20;99.90;;;;;;5075744;28;20285;-79
2020/12/10 05:10:42;;;;;;;22.95;15.45;;;6.10;99.90;;;;;;5075658;28;20194;-78
2020/12/10 05:13:10;;;;;;;17.15;13.85;;;6.10;99.90;;;;;;5075431;28;20197;-79
2020/12/10 05:15:38;;;;;;;22.13;16.13;;;6.10;99.90;;;;;;5075405;28;20645;-79
2020/12/10 05:18:06;;;;;;;18.13;14.15;;;6.10;99.90;;;;;;5075506;28;20197;-79
2020/12/10 05:20:39;;;;;;;21.50;15.13;;;6.10;99.90;;;;;;5075382;28;20667;-79
2020/12/10 05:23:08;;;;;;;22.85;14.63;;;6.00;99.90;;;;;;5075279;28;20225;-79
2020/12/10 05:25:45;;;;;;;24.85;14.93;;;6.00;99.90;;;;;;5075270;28;20201;-78
2020/12/10 05:28:12;;;;;;;17.98;13.45;;;6.10;99.90;;;;;;5075162;28;20198;-78
2020/12/10 05:30:39;;;;;;;19.92;15.18;;;6.00;99.90;;;;;;5075312;28;20251;-79
2020/12/10 05:33:13;;;;;;;26.10;17.33;;;6.00;99.90;;;;;;5075177;28;20331;-79
2020/12/10 05:35:39;;;;;;;24.60;15.45;;;6.00;99.90;;;;;;5075053;28;20556;-79
2020/12/10 05:38:13;;;;;;;21.27;14.38;;;6.00;99.90;;;;;;5075167;28;20205;-80
2020/12/10 05:40:40;;;;;;;28.85;16.45;;;5.90;99.90;;;;;;5075197;28;20205;-78
2020/12/10 05:43:07;;;;;;;22.95;16.42;;;6.00;99.90;;;;;;5074847;28;20696;-78
2020/12/10 05:45:38;;;;;;;22.23;14.63;;;6.00;99.90;;;;;;5075028;28;20194;-79
2020/12/10 05:48:05;;;;;;;22.75;15.13;;;6.00;99.90;;;;;;5074960;28;20202;-79
2020/12/10 05:50:32;;;;;;;26.42;15.90;;;6.00;99.90;;;;;;5074909;28;20208;-79
2020/12/10 05:53:09;;;;;;;18.85;15.20;;;5.90;99.90;;;;;;5074707;28;20202;-79
2020/12/10 05:55:37;;;;;;;20.10;14.70;;;6.00;99.90;;;;;;5074783;28;20321;-79
2020/12/10 05:58:04;;;;;;;23.58;15.60;;;6.00;99.90;;;;;;5074744;28;20194;-78
2020/12/10 06:00:31;;;;;;;24.13;15.82;;;6.00;99.90;;;;;;5074526;28;20608;-79
2020/12/10 06:02:59;;;;;;;22.67;15.45;;;6.00;99.90;;;;;;5074398;28;20230;-79
2020/12/10 06:05:26;;;;;;;23.63;15.15;;;6.10;99.90;;;;;;5074488;28;20629;-79
2020/12/10 06:08:03;;;;;;;23.23;16.10;;;6.00;99.90;;;;;;5074486;28;20200;-79
2020/12/10 06:10:34;;;;;;;20.77;14.52;;;5.90;99.90;;;;;;5074390;28;20202;-79
2020/12/10 06:13:00;;;;;;;20.80;15.00;;;6.00;99.90;;;;;;5074509;28;20190;-79
2020/12/10 06:15:29;;;;;;;21.67;15.10;;;6.10;99.90;;;;;;5074108;28;20205;-79
2020/12/10 06:18:10;;;;;;;23.23;14.38;;;6.00;99.90;;;;;;5073844;28;20201;-79
2020/12/10 06:20:40;;;;;;;26.75;16.92;;;6.00;99.90;;;;;;5074258;28;20194;-79
2020/12/10 06:23:35;;;;;;;22.23;16.05;;;6.10;99.90;;;;;;5074080;28;20536;-79
2020/12/10 06:26:34;;;;;;;23.02;16.05;;;6.10;99.90;;;;;;5060843;28;20205;-79
2020/12/10 06:29:24;;;;;;;20.98;15.48;;;6.10;99.90;;;;;;5068843;28;20248;-78
2020/12/10 06:32:04;;;;;;;26.13;14.95;;;6.00;99.90;;;;;;5073895;28;20198;-79
2020/12/10 06:34:37;;;;;;;27.70;17.38;;;6.10;99.90;;;;;;5073784;28;20221;-78
2020/12/10 06:37:25;;;;;;;19.60;13.65;;;6.00;99.90;;;;;;5074036;28;20221;-79
2020/12/10 06:39:55;;;;;;;23.15;15.63;;;6.00;99.90;;;;;;5069533;28;20202;-78
2020/12/10 06:42:21;;;;;;;28.80;17.13;;;5.90;99.90;;;;;;5073642;28;20672;-78
2020/12/10 06:44:49;;;;;;;22.60;16.13;;;5.90;99.90;;;;;;5073405;28;20201;-78
2020/12/10 06:47:16;;;;;;;23.83;15.10;;;5.80;99.90;;;;;;5073669;28;20194;-79
2020/12/10 06:49:43;;;;;;;22.60;15.48;;;5.80;99.90;;;;;;5073620;28;20201;-79
2020/12/10 06:52:19;;;;;;;22.42;14.18;;;5.80;99.90;;;;;;5073478;28;20194;-79
2020/12/10 06:55:08;;;;;;;21.58;15.60;;;5.80;99.90;;;;;;5073574;28;20241;-79
2020/12/10 06:58:01;;;;;;;21.40;14.98;;;5.80;99.90;;;;;;5073431;28;20225;-79
2020/12/10 07:00:44;;;;;;;19.55;15.57;;;5.70;99.90;;;;;;5073480;28;20543;-79
2020/12/10 07:03:14;;;;;;;23.60;16.52;;;5.70;99.90;;;;;;5073274;28;20681;-79
2020/12/10 07:05:41;;;;;;;24.02;16.33;;;5.80;99.90;;;;;;5073311;28;20218;-79
2020/12/10 07:08:09;;;;;;;20.77;14.85;;;5.80;99.90;;;;;;5072899;28;20194;-79
2020/12/10 07:10:40;;;;;;;25.27;17.42;;;5.80;99.90;;;;;;5073336;28;20198;-79
2020/12/10 07:13:06;;;;;;;23.38;15.10;;;5.80;99.90;;;;;;5073389;28;20385;-79
2020/12/10 07:15:32;;;;;;;24.15;16.92;;;5.80;99.90;;;;;;5073313;28;20523;-79
2020/12/10 07:18:03;;;;;;;28.52;16.10;;;5.90;99.90;;;;;;5073343;28;20195;-79
2020/12/10 07:20:29;;;;;;;26.65;15.50;;;5.90;99.90;;;;;;5073331;28;20202;-79
2020/12/10 07:22:56;;;;;;;21.27;16.85;;;5.90;99.90;;;;;;5073169;28;20221;-79
2020/12/10 07:25:23;;;;;;;24.83;16.40;;;5.80;99.90;;;;;;5073040;28;20209;-79
2020/12/10 07:27:49;;;;;;;21.70;16.13;;;5.80;99.90;;;;;;5073236;28;20198;-79
2020/12/10 07:30:17;;;;;;;24.13;15.65;;;5.80;99.90;;;;;;5072513;28;20194;-79
2020/12/10 07:32:44;;;;;;;24.05;16.08;;;5.80;99.90;;;;;;5073011;28;20723;-79
2020/12/10 07:35:11;;;;;;;23.08;16.83;;;5.80;99.90;;;;;;5072989;28;20305;-79
2020/12/10 07:37:39;;;;;;;24.63;16.27;;;5.80;99.90;;;;;;5073173;28;20203;-79
2020/12/10 07:40:13;;;;;;;22.73;15.55;;;5.70;99.90;;;;;;5073185;28;20198;-79
2020/12/10 07:42:40;;;;;;;24.05;16.25;;;5.80;99.90;;;;;;5072896;28;20224;-79
2020/12/10 07:45:11;;;;;;;28.00;17.45;;;5.80;99.90;;;;;;5073007;28;20199;-79
2020/12/10 07:47:38;;;;;;;25.63;17.15;;;5.70;99.90;;;;;;5073108;28;20611;-79
2020/12/10 07:50:08;;;;;;;27.95;18.35;;;5.80;99.90;;;;;;5072921;28;20194;-79
2020/12/10 07:52:43;;;;;;;28.88;17.15;;;5.80;99.90;;;;;;5072788;28;20233;-79
2020/12/10 07:55:16;;;;;;;27.80;17.20;;;5.80;99.90;;;;;;5072666;28;20257;-79
2020/12/10 07:58:01;;;;;;;24.23;16.15;;;5.80;99.90;;;;;;5072949;28;20198;-79
2020/12/10 08:00:29;;;;;;;29.35;17.27;;;5.70;99.90;;;;;;5072861;28;20247;-79
2020/12/10 08:03:23;;;;;;;23.02;16.20;;;5.70;99.90;;;;;;5072726;28;20226;-79
2020/12/10 08:06:04;;;;;;;23.52;16.92;;;5.70;99.90;;;;;;5072716;28;20195;-79
2020/12/10 08:08:37;;;;;;;29.02;16.67;;;5.80;99.90;;;;;;5072796;28;20195;-79
2020/12/10 08:11:18;;;;;;;23.17;16.25;;;5.80;99.90;;;;;;5072756;28;20198;-79
2020/12/10 08:13:59;;;;;;;28.85;18.88;;;5.90;99.90;;;;;;5072818;28;20205;-79
2020/12/10 08:16:37;;;;;;;28.25;18.88;;;5.90;99.90;;;;;;5072718;28;20279;-79
2020/12/10 08:19:13;;;;;;;31.35;17.15;;;5.90;99.90;;;;;;5072727;28;20255;-79
2020/12/10 08:21:40;;;;;;;21.80;16.85;;;6.00;99.90;;;;;;5072605;28;20198;-79
2020/12/10 08:24:06;;;;;;;31.30;19.17;;;6.00;99.90;;;;;;5072588;28;20229;-79
2020/12/10 08:26:33;;;;;;;26.33;18.80;;;6.00;99.90;;;;;;5072478;28;20650;-79
2020/12/10 08:29:00;;;;;;;23.90;17.50;;;6.00;99.90;;;;;;5072579;28;20194;-79
2020/12/10 08:31:28;;;;;;;28.80;18.58;;;6.10;99.90;;;;;;5072420;28;20201;-79
2020/12/10 08:33:55;;;;;;;28.25;18.42;;;6.00;99.90;;;;;;5071958;28;20617;-80
2020/12/10 08:36:26;;;;;;;31.80;20.02;;;6.00;99.90;;;;;;5075324;28;20553;-80
2020/12/10 08:38:54;;;;;;;35.15;19.85;;;6.00;99.90;;;;;;5072484;28;20198;-80
2020/12/10 08:41:29;;;;;;;29.95;18.95;;;6.00;99.90;;;;;;5087352;28;20185;-79
2020/12/10 08:43:58;;;;;;;27.90;19.95;;;6.10;99.90;;;;;;5096174;28;20225;-79
2020/12/10 08:46:25;;;;;;;32.40;20.08;;;6.10;99.90;;;;;;5096119;28;20202;-79
2020/12/10 08:48:52;;;;;;;29.05;19.83;;;6.20;99.90;;;;;;5095627;28;20205;-79
2020/12/10 08:51:18;;;;;;;31.20;19.85;;;6.20;99.90;;;;;;5095939;28;20221;-79
2020/12/10 08:53:49;;;;;;;33.22;20.60;;;6.20;99.90;;;;;;5093502;28;20228;-80
2020/12/10 08:56:24;;;;;;;30.85;19.75;;;6.10;99.90;;;;;;5095369;28;20289;-79
2020/12/10 08:58:50;;;;;;;29.65;20.20;;;6.10;99.90;;;;;;5085110;28;20197;-78
2020/12/10 09:01:18;;;;;;;25.90;17.85;;;6.10;99.90;;;;;;5095064;28;20198;-80
2020/12/10 09:03:45;;;;;;;27.45;18.85;;;6.10;99.90;;;;;;5095664;28;20229;-80
2020/12/10 09:06:12;;;;;;;29.42;18.88;;;6.10;99.90;;;;;;5095914;28;20198;-79
2020/12/10 09:08:38;;;;;;;30.58;19.30;;;6.10;99.90;;;;;;5095976;28;20190;-80
2020/12/10 09:11:04;;;;;;;27.73;18.63;;;6.20;99.90;;;;;;5095727;28;20671;-80
2020/12/10 09:13:30;;;;;;;28.00;20.08;;;6.30;99.90;;;;;;5095940;28;20201;-80
2020/12/10 09:15:57;;;;;;;23.55;16.80;;;6.30;99.90;;;;;;5095727;28;20198;-79
2020/12/10 09:18:24;;;;;;;28.63;18.05;;;6.20;99.90;;;;;;5095583;28;20194;-80
2020/12/10 09:20:51;;;;;;;25.92;17.08;;;6.20;99.90;;;;;;5095629;28;20654;-80
2020/12/10 09:23:17;;;;;;;26.02;17.35;;;6.20;99.90;;;;;;5095424;28;20285;-79
2020/12/10 09:25:43;;;;;;;33.85;19.13;;;6.20;99.90;;;;;;5095543;28;20193;-79
2020/12/10 09:28:10;;;;;;;37.75;21.33;;;6.20;99.90;;;;;;5095577;28;20201;-80
2020/12/10 09:30:37;;;;;;;31.48;19.85;;;6.30;99.90;;;;;;5095530;28;20565;-79
2020/12/10 09:33:04;;;;;;;37.33;21.20;;;6.40;99.90;;;;;;5095510;28;20216;-79
2020/12/10 09:35:32;;;;;;;37.50;20.77;;;6.40;99.90;;;;;;5095359;28;20711;-80
2020/12/10 09:38:01;;;;;;;35.20;20.23;;;6.30;99.90;;;;;;5095349;28;20559;-79
2020/12/10 09:40:28;;;;;;;38.10;22.27;;;6.30;99.90;;;;;;5095271;28;20214;-80
2020/12/10 09:42:54;;;;;;;35.47;20.98;;;6.40;99.90;;;;;;5095185;28;20741;-79
2020/12/10 09:45:20;;;;;;;29.85;20.98;;;6.40;99.90;;;;;;5095144;28;20206;-79
2020/12/10 09:47:47;;;;;;;42.38;21.30;;;6.50;99.90;;;;;;5095070;28;20202;-80
2020/12/10 09:50:25;;;;;;;36.97;22.08;;;6.50;99.90;;;;;;5095176;28;20194;-80
2020/12/10 09:53:01;;;;;;;35.60;22.48;;;6.60;99.90;;;;;;5094084;28;20197;-79
2020/12/10 09:55:43;;;;;;;34.83;21.30;;;6.60;99.90;;;;;;5094797;28;20626;-79
2020/12/10 09:58:09;;;;;;;32.28;20.27;;;6.80;99.90;;;;;;5095053;28;20218;-80
2020/12/10 10:00:36;;;;;;;25.10;17.60;;;6.80;99.90;;;;;;5094683;28;20572;-80
2020/12/10 10:03:06;;;;;;;28.40;18.60;;;6.90;99.90;;;;;;5094446;28;20221;-80
2020/12/10 10:05:32;;;;;;;28.88;19.40;;;6.90;99.90;;;;;;5095197;28;20198;-80
2020/12/10 10:08:00;;;;;;;35.72;18.10;;;7.00;99.90;;;;;;5094882;28;20197;-80
2020/12/10 10:10:26;;;;;;;30.60;18.45;;;7.00;99.90;;;;;;5094645;28;20645;-79
2020/12/10 10:12:52;;;;;;;29.95;20.85;;;7.10;99.90;;;;;;5094713;28;20581;-79
2020/12/10 10:15:18;;;;;;;28.88;19.92;;;7.10;99.90;;;;;;5094491;28;20196;-79
2020/12/10 10:17:45;;;;;;;26.67;18.08;;;7.10;99.90;;;;;;5094465;28;20200;-79
2020/12/10 10:20:11;;;;;;;29.85;18.98;;;7.10;99.90;;;;;;5094405;28;20201;-79
2020/12/10 10:22:38;;;;;;;29.48;17.70;;;7.20;99.90;;;;;;5094497;28;20197;-79
2020/12/10 10:25:05;;;;;;;31.80;19.80;;;7.20;99.90;;;;;;5094470;28;20202;-79
2020/12/10 10:27:32;;;;;;;27.60;18.08;;;7.20;99.90;;;;;;5094271;28;20193;-79
2020/12/10 10:29:58;;;;;;;29.35;18.48;;;7.20;99.90;;;;;;5094263;28;20205;-79
2020/12/10 10:32:24;;;;;;;33.20;19.17;;;7.30;99.90;;;;;;5094059;28;20220;-80
2020/12/10 10:34:51;;;;;;;33.50;19.10;;;7.40;99.90;;;;;;5093972;28;20218;-78
2020/12/10 10:37:17;;;;;;;29.02;18.00;;;7.30;99.90;;;;;;5094113;28;20190;-79
2020/12/10 10:39:43;;;;;;;27.65;18.92;;;7.40;99.90;;;;;;5094180;28;20197;-80
2020/12/10 10:42:11;;;;;;;27.13;17.58;;;7.40;99.90;;;;;;5094200;28;20202;-80
2020/12/10 10:44:37;;;;;;;27.42;17.10;;;7.50;99.90;;;;;;5093764;28;20695;-79
2020/12/10 10:47:03;;;;;;;30.35;17.25;;;7.50;99.90;;;;;;5094023;28;20201;-79
2020/12/10 10:49:29;;;;;;;20.98;14.88;;;7.50;99.90;;;;;;5093889;28;20640;-79
2020/12/10 10:51:55;;;;;;;25.27;14.75;;;7.50;99.90;;;;;;5093759;28;20201;-79
2020/12/10 10:54:22;;;;;;;21.45;14.25;;;7.50;99.90;;;;;;5093675;28;20221;-79
2020/12/10 10:56:48;;;;;;;20.13;13.75;;;7.60;99.90;;;;;;5093816;28;20193;-79
2020/12/10 10:59:15;;;;;;;18.23;13.00;;;7.70;99.90;;;;;;5093897;28;20200;-79
2020/12/10 11:01:41;;;;;;;18.73;12.90;;;7.70;99.90;;;;;;5093751;28;20193;-79
2020/12/10 11:04:08;;;;;;;21.63;14.02;;;7.80;99.90;;;;;;5093563;28;20225;-79
2020/12/10 11:06:34;;;;;;;21.48;13.48;;;7.90;99.90;;;;;;5093693;28;20193;-80
2020/12/10 11:09:00;;;;;;;19.10;13.95;;;8.10;99.90;;;;;;5094008;28;20565;-79
2020/12/10 11:11:26;;;;;;;20.88;13.05;;;8.20;99.90;;;;;;5093501;28;20216;-79
2020/12/10 11:13:53;;;;;;;17.33;12.65;;;8.20;99.90;;;;;;5093749;28;20194;-80
2020/12/10 11:16:21;;;;;;;18.27;12.73;;;8.20;99.90;;;;;;5093674;28;20189;-79
2020/12/10 11:18:47;;;;;;;19.02;11.68;;;8.20;99.90;;;;;;5093524;28;20189;-79
2020/12/10 11:21:14;;;;;;;18.10;12.10;;;8.20;99.90;;;;;;5093310;28;20190;-79
2020/12/10 11:23:41;;;;;;;19.45;12.23;;;8.20;99.90;;;;;;5093386;28;20221;-79
2020/12/10 11:26:08;;;;;;;20.42;12.63;;;8.30;99.90;;;;;;5093445;28;20679;-79
2020/12/10 11:28:34;;;;;;;17.60;11.98;;;8.40;99.90;;;;;;5093505;28;20190;-79
2020/12/10 11:31:01;;;;;;;19.15;12.82;;;8.40;99.90;;;;;;5093376;28;20189;-80
2020/12/10 11:33:28;;;;;;;15.20;11.35;;;8.50;99.90;;;;;;5093189;28;20240;-79
2020/12/10 11:35:54;;;;;;;17.20;11.80;;;8.50;99.90;;;;;;5093316;28;20198;-79
2020/12/10 11:38:21;;;;;;;18.60;12.18;;;8.60;99.90;;;;;;5093534;28;20193;-79
2020/12/10 11:40:47;;;;;;;19.25;13.10;;;8.60;99.90;;;;;;5093293;28;20193;-79
2020/12/10 11:43:13;;;;;;;17.90;12.23;;;8.70;99.90;;;;;;5092977;28;20218;-79
2020/12/10 11:45:40;;;;;;;20.27;12.45;;;8.60;99.90;;;;;;5093054;28;20205;-80
2020/12/10 11:48:07;;;;;;;15.77;10.90;;;8.70;99.90;;;;;;5093293;28;20202;-79
2020/12/10 11:50:35;;;;;;;15.38;11.55;;;8.60;99.90;;;;;;5093188;28;20200;-79
2020/12/10 11:53:02;;;;;;;16.15;11.43;;;8.60;99.90;;;;;;5082069;28;20301;-80
2020/12/10 11:55:29;;;;;;;14.55;10.23;;;8.60;99.90;;;;;;5078262;28;20577;-79
2020/12/10 11:57:55;;;;;;;19.45;13.50;;;8.70;99.90;;;;;;5074437;28;20680;-79
2020/12/10 12:00:22;;;;;;;21.25;11.70;;;8.80;99.90;;;;;;5076696;28;20186;-79
2020/12/10 12:02:50;;;;;;;15.95;10.40;;;8.80;99.90;;;;;;5072842;28;20197;-79
2020/12/10 12:05:17;;;;;;;14.30;10.57;;;8.90;99.90;;;;;;5072730;28;20279;-79
2020/12/10 12:07:45;;;;;;;17.20;11.43;;;9.00;99.90;;;;;;5072832;28;20198;-80
2020/12/10 12:10:12;;;;;;;12.23;8.68;;;8.90;99.90;;;;;;5072740;28;20224;-80
2020/12/10 12:12:38;;;;;;;18.17;10.18;;;8.90;99.90;;;;;;5072690;28;20190;-79
2020/12/10 12:15:06;;;;;;;17.25;11.32;;;9.10;99.90;;;;;;5073585;28;20202;-80
2020/12/10 12:17:33;;;;;;;18.40;11.63;;;9.10;99.90;;;;;;5076553;28;20197;-80
2020/12/10 12:20:00;;;;;;;17.15;10.18;;;9.10;99.90;;;;;;5076645;28;20280;-79
2020/12/10 12:22:26;;;;;;;18.70;11.32;;;9.10;99.90;;;;;;5076524;28;20190;-80
2020/12/10 12:24:53;;;;;;;16.15;10.25;;;9.10;99.90;;;;;;5076479;28;20222;-80
2020/12/10 12:27:19;;;;;;;14.43;10.05;;;9.10;99.90;;;;;;5076448;28;20201;-79
2020/12/10 12:29:46;;;;;;;18.05;11.60;;;9.10;99.90;;;;;;5076449;28;20229;-80
2020/12/10 12:32:12;;;;;;;15.60;10.05;;;9.10;99.90;;;;;;5076284;28;20190;-80
2020/12/10 12:34:39;;;;;;;16.42;9.93;;;9.10;99.90;;;;;;5076148;28;20218;-80
2020/12/10 12:37:05;;;;;;;15.40;10.88;;;9.00;99.90;;;;;;5076138;28;20194;-80
2020/12/10 12:39:31;;;;;;;18.77;11.50;;;9.20;99.90;;;;;;5076121;28;20198;-80
2020/12/10 12:41:58;;;;;;;17.65;11.35;;;9.10;99.90;;;;;;5076134;28;20269;-80
2020/12/10 12:44:24;;;;;;;16.67;10.77;;;9.00;99.90;;;;;;5075975;28;20581;-79